Etusivu
METAR-TAF:

METAR-TAF

Lentoasemat :

Dakar, Senegal

Leveyspiiri: 14-44N, Pituuspiiri: 017-30W, korkeus merenpinnasta: 27 m

Tämänhetkinen sää

Tämä raportti tehtiin 1 tunti ja 20 minuuttia sitten, kello 03.00 UTC
Tuuli 4 kn lännestä
Lämpötila 25°C
Kosteus 83%
Ilmanpaine 1011 hPa
Näkyvyys: 8000 m
Muutamia pilviä 1300 ft:n korkeudessa

METAR: GOOY 220300Z 28004KT 8000 FEW013 25/22 Q1011

Aika: 04:20 (04:20 UTC)

Sääennuste

Tämä raportti tehtiin 4 tuntia ja 50 minuuttia sitten, kello 23.30 UTC
Ennuste voimassa 22. päivästä klo 00 UTC - 23. päivään klo 06 UTC
Tuuli 7 kn lännestä
Näkyvyys 10 km tai enemmän
Hajanaisia pilviä 1300 ft:n korkeudessa

TAF: GOOY 212330Z 2200/2306 28007KT 9999 SCT013

Säähavainnot ja -ennusteet yli 4000 lentoasemalta (METAR- ja TAF-raportit).

Käytössä olevat sääasemat on merkitty karttaan keltaisilla ja punaisilla pisteillä.

Aseta hiiri pisteen päälle nähdäksesi sääaseman nimen.

Klikkaa sitten nähdäksesi säähavainnot ja -ennusteet.

Kartan vaihtaminen: klikkaa mustalla rastilla varustettuja vihreitä pisteitä, niin voit zoomata sisään; viivalla varustettua vihreää pistettä, niin voit zoomata ulos tai vihreitä nuolia, niin pääset viereisille kartoille.


METAR-TAF: